VERT2: Pease River Nr Vernon, TX

Data processed at Thu May 23 2019 23:50


All information presented herein is the property of the government of the United States of America and may be revised or deleted at any time without prior notice.
Dissemination of this information without the expressed written consent of the Public Affairs Office, Tulsa District U.S. Army Corps of Engineers is strictly prohibited.
These data are gathered electronically and, as presented, have not undergone any form of quality control. These data are not guaranteed to be valid or correct.
Go to home page.
Go to station list.
Go to home page.

Downstream station:


Previous Day
Next Day
Current Day
    
SHEF ID:       VERT2     Pease River nr Vernon, TX
STATION TYPE:  
Regulating: Stage =    15.00, Flow =    12297

               PRECIP     STAGE  RIV-FLOW  BAT-LOAD
                   in        ft       cfs      volt
              Ccp-Rev   Ccp-Rev   Ccp-Rev   Ccp-Rev
(US/Central)
05/23 00:00      0.00      6.29       159     12.42
05/23 01:00      0.00      6.30       161     12.42
05/23 02:00      0.00      6.20       143     12.42
05/23 03:00      0.00      6.28       157     12.42
05/23 04:00      0.00      6.29       159     12.36
05/23 05:00      0.00      6.18       139     12.36
05/23 06:00      0.00      6.16       136     12.36
05/23 07:00      0.00      6.22       146     12.36
05/23 08:00      0.00      6.09       124     12.36
05/23 09:00      0.00      6.12       129     12.36
05/23 10:00      0.00      6.29       159     12.36
05/23 11:00      0.00      6.09       124     12.36
05/23 12:00      0.00      6.11       128     12.42
05/23 13:00      0.00      6.03       115     12.42
05/23 14:00      0.00      6.23       148     12.42
05/23 15:00      0.00      6.18       139     12.42
05/23 16:00      0.00      6.03       115     12.48
05/23 17:00      0.00      5.98       107     12.48
05/23 18:00      0.00      6.02       113     12.48
05/23 19:00      0.00      6.00       110     12.48
05/23 20:00      0.00      5.91        98     12.48
05/23 21:00      0.00      6.03       115     12.42
05/23 22:00      0.00      5.96       105     12.42
05/23 23:00      0.00      6.05       118     12.36